Time;durP1;ratioP1;P1;durP2;ratioP2;P2;SDS_P1;SDS_P2;PMS_P1;PMS_P2;Temp;Humidity;BMP_temperature;BMP_pressure;BME280_temperature;BME280_humidity;BME280_pressure;Samples;Min_cycle;Max_cycle;Signal;HPM_P1;HPM_P2
2021/05/25 00:00:26;;;;;;;2.58;0.70;;;13.80;61.60;;;;;;2626051;52;21000;-73
2021/05/25 00:02:55;;;;;;;2.60;0.60;;;13.80;61.50;;;;;;2627940;52;21032;-73
2021/05/25 00:05:29;;;;;;;2.35;0.80;;;13.80;61.40;;;;;;2372834;53;20937;-73
2021/05/25 00:07:56;;;;;;;2.83;0.60;;;13.80;60.90;;;;;;2453008;52;21110;-73
2021/05/25 00:10:23;;;;;;;5.32;0.85;;;13.80;61.20;;;;;;2374086;53;20969;-73
2021/05/25 00:12:52;;;;;;;2.20;0.70;;;13.80;61.00;;;;;;2374270;53;21413;-72
2021/05/25 00:15:21;;;;;;;1.92;0.52;;;13.80;60.80;;;;;;2374108;53;20988;-73
2021/05/25 00:17:48;;;;;;;1.73;0.60;;;13.80;60.70;;;;;;2374022;53;20986;-73
2021/05/25 00:20:15;;;;;;;2.15;0.60;;;13.80;60.50;;;;;;2378455;52;21057;-73
2021/05/25 00:22:42;;;;;;;1.92;0.70;;;13.80;60.10;;;;;;2377502;52;21026;-72
2021/05/25 00:25:10;;;;;;;1.87;0.50;;;13.80;60.20;;;;;;2373166;53;21290;-73
2021/05/25 00:27:37;;;;;;;2.35;0.60;;;13.80;60.20;;;;;;2626672;52;20942;-72
2021/05/25 00:30:05;;;;;;;2.72;0.60;;;13.80;59.80;;;;;;2375987;53;20917;-72
2021/05/25 00:32:35;;;;;;;3.33;0.47;;;13.80;59.70;;;;;;2627714;52;20974;-72
2021/05/25 00:35:01;;;;;;;1.77;0.50;;;13.80;59.90;;;;;;2372787;53;20933;-72
2021/05/25 00:37:27;;;;;;;1.75;0.57;;;13.80;59.60;;;;;;2373757;53;22242;-72
2021/05/25 00:39:54;;;;;;;2.25;0.68;;;13.90;59.60;;;;;;2627735;52;21010;-73
2021/05/25 00:42:20;;;;;;;3.33;0.70;;;13.80;58.80;;;;;;2568487;52;21461;-72
2021/05/25 00:44:48;;;;;;;2.47;0.43;;;13.80;58.60;;;;;;2372721;52;20990;-72
2021/05/25 00:47:14;;;;;;;2.20;0.50;;;13.80;58.80;;;;;;2357121;53;20950;-72
2021/05/25 00:49:40;;;;;;;2.47;0.50;;;13.80;59.00;;;;;;2373132;53;20969;-72
2021/05/25 00:52:08;;;;;;;1.83;0.50;;;13.80;58.70;;;;;;2373979;53;20994;-71
2021/05/25 00:54:34;;;;;;;1.75;0.45;;;13.80;58.70;;;;;;2377638;52;20918;-72
2021/05/25 00:57:00;;;;;;;1.37;0.50;;;13.80;58.40;;;;;;2410317;52;20954;-72
2021/05/25 00:59:28;;;;;;;2.20;0.50;;;13.80;58.50;;;;;;2368447;53;20936;-71
2021/05/25 01:01:54;;;;;;;3.67;0.60;;;13.80;58.40;;;;;;2621962;52;20941;-72
2021/05/25 01:04:21;;;;;;;3.22;0.62;;;13.80;58.00;;;;;;2374587;52;20969;-72
2021/05/25 01:06:48;;;;;;;1.55;0.60;;;13.80;57.90;;;;;;2377471;52;20914;-71
2021/05/25 01:09:17;;;;;;;4.60;1.00;;;13.80;58.00;;;;;;2373747;53;20925;-72
2021/05/25 01:11:44;;;;;;;1.85;0.50;;;13.80;58.20;;;;;;2374263;52;20925;-71
2021/05/25 01:14:11;;;;;;;2.40;0.60;;;13.80;58.20;;;;;;2374618;52;21022;-71
2021/05/25 01:16:37;;;;;;;4.00;0.70;;;13.80;57.70;;;;;;2374474;52;21005;-72
2021/05/25 01:19:04;;;;;;;2.17;0.60;;;13.80;57.60;;;;;;2373917;52;21877;-71
2021/05/25 01:21:34;;;;;;;2.60;0.60;;;13.70;57.70;;;;;;2377701;52;21458;-71
2021/05/25 01:24:00;;;;;;;3.17;0.60;;;13.70;57.70;;;;;;2373958;52;21036;-71
2021/05/25 01:26:27;;;;;;;1.62;0.60;;;13.70;58.00;;;;;;2374337;52;21281;-70
2021/05/25 01:28:54;;;;;;;1.77;0.57;;;13.60;57.50;;;;;;2377696;52;20981;-72
2021/05/25 01:31:21;;;;;;;3.12;0.52;;;13.60;58.00;;;;;;2373256;53;21386;-72
2021/05/25 01:33:47;;;;;;;1.98;0.60;;;13.60;58.00;;;;;;2378337;52;20985;-72
2021/05/25 01:36:14;;;;;;;2.60;0.88;;;13.60;58.10;;;;;;2373962;52;20924;-71
2021/05/25 01:38:41;;;;;;;3.53;0.60;;;13.50;57.90;;;;;;2628007;52;20946;-70
2021/05/25 01:41:08;;;;;;;2.90;0.60;;;13.50;58.20;;;;;;2373163;53;20957;-72
2021/05/25 01:43:36;;;;;;;2.90;0.70;;;13.50;58.20;;;;;;2378037;52;20930;-71
2021/05/25 01:46:03;;;;;;;3.05;0.70;;;13.50;58.40;;;;;;2609044;52;21625;-71
2021/05/25 01:48:31;;;;;;;2.17;0.60;;;13.40;58.40;;;;;;2374603;52;20898;-70
2021/05/25 01:50:58;;;;;;;3.92;0.80;;;13.40;58.60;;;;;;2382187;52;20970;-71
2021/05/25 01:53:29;;;;;;;1.08;0.47;;;13.40;58.60;;;;;;2366891;52;20921;-70
2021/05/25 01:55:56;;;;;;;2.78;0.57;;;13.30;58.40;;;;;;2374682;52;20969;-72
2021/05/25 01:58:36;;;;;;;2.83;0.50;;;13.30;58.60;;;;;;2377141;52;20949;-69
2021/05/25 02:01:12;;;;;;;1.33;0.50;;;13.20;58.40;;;;;;2402865;52;21006;-71
2021/05/25 02:03:39;;;;;;;1.27;0.40;;;13.20;58.70;;;;;;2627886;52;20985;-70
2021/05/25 02:06:05;;;;;;;1.48;0.40;;;13.20;58.90;;;;;;2628115;52;20933;-70
2021/05/25 02:08:32;;;;;;;2.40;0.60;;;13.10;58.90;;;;;;2377613;52;20941;-69
2021/05/25 02:11:02;;;;;;;2.60;0.60;;;13.10;58.90;;;;;;2373034;52;20934;-69
2021/05/25 02:13:33;;;;;;;2.03;0.50;;;13.10;59.00;;;;;;2534236;52;20986;-71
2021/05/25 02:16:05;;;;;;;2.47;0.37;;;13.10;59.10;;;;;;2619265;52;20890;-71
2021/05/25 02:18:33;;;;;;;3.10;0.70;;;13.00;59.10;;;;;;2374187;52;20914;-70
2021/05/25 02:21:01;;;;;;;2.85;0.70;;;13.00;59.20;;;;;;2627216;52;20905;-71
2021/05/25 02:23:27;;;;;;;2.00;0.50;;;13.00;59.10;;;;;;2369344;52;21772;-71
2021/05/25 02:25:54;;;;;;;2.70;0.70;;;13.00;58.90;;;;;;2627628;52;20921;-71
2021/05/25 02:28:23;;;;;;;4.10;0.65;;;13.00;58.90;;;;;;2424519;52;21018;-70
2021/05/25 02:30:49;;;;;;;2.65;0.60;;;12.90;59.10;;;;;;2627157;52;20929;-72
2021/05/25 02:33:17;;;;;;;2.90;0.60;;;12.90;59.00;;;;;;2374239;52;20961;-71
2021/05/25 02:35:44;;;;;;;1.50;0.50;;;12.90;59.20;;;;;;2378225;53;20926;-71
2021/05/25 02:38:13;;;;;;;1.73;0.40;;;12.90;59.20;;;;;;2372412;52;20977;-71
2021/05/25 02:40:39;;;;;;;2.15;0.55;;;12.90;59.30;;;;;;2377126;52;20956;-70
2021/05/25 02:43:06;;;;;;;1.10;0.50;;;12.90;59.20;;;;;;2373555;52;21485;-71
2021/05/25 02:45:32;;;;;;;1.70;0.60;;;12.90;59.30;;;;;;2377787;52;20954;-71
2021/05/25 02:47:59;;;;;;;2.12;0.55;;;12.90;59.30;;;;;;2560608;52;21053;-71
2021/05/25 02:50:25;;;;;;;1.40;0.43;;;12.90;59.20;;;;;;2436131;53;21029;-71
2021/05/25 02:52:52;;;;;;;1.15;0.40;;;12.90;59.10;;;;;;2356775;53;21100;-71
2021/05/25 02:55:23;;;;;;;1.17;0.35;;;12.90;59.00;;;;;;2373341;53;21858;-71
2021/05/25 02:57:49;;;;;;;1.65;0.40;;;12.90;59.00;;;;;;2373973;53;21441;-72
2021/05/25 03:00:21;;;;;;;1.65;0.50;;;12.80;59.10;;;;;;2373849;53;20925;-71
2021/05/25 03:02:48;;;;;;;1.77;0.50;;;12.90;59.20;;;;;;2374596;53;21092;-72
2021/05/25 03:05:15;;;;;;;3.42;0.70;;;12.80;59.00;;;;;;2627661;52;20905;-70
2021/05/25 03:07:41;;;;;;;1.83;0.55;;;12.80;58.80;;;;;;2378458;52;21025;-70
2021/05/25 03:10:14;;;;;;;1.30;0.52;;;12.80;59.00;;;;;;2373638;52;20929;-70
2021/05/25 03:12:41;;;;;;;4.93;0.70;;;12.80;58.90;;;;;;2374478;53;20945;-70
2021/05/25 03:15:08;;;;;;;1.00;0.43;;;12.80;58.70;;;;;;2377402;53;20958;-71
2021/05/25 03:17:36;;;;;;;1.62;0.50;;;12.80;58.90;;;;;;2373634;53;20937;-71
2021/05/25 03:20:04;;;;;;;2.25;0.52;;;12.80;58.80;;;;;;2422421;52;21465;-71
2021/05/25 03:22:31;;;;;;;2.40;0.55;;;12.80;58.70;;;;;;2353822;53;20939;-71
2021/05/25 03:24:58;;;;;;;1.75;0.60;;;12.80;58.90;;;;;;2378441;52;20962;-72
2021/05/25 03:27:27;;;;;;;1.25;0.50;;;12.70;58.80;;;;;;2489466;52;20965;-71
2021/05/25 03:29:57;;;;;;;2.05;0.70;;;12.70;58.70;;;;;;2607800;52;20944;-71
2021/05/25 03:32:23;;;;;;;1.98;0.70;;;12.70;58.80;;;;;;2376768;52;21022;-71
2021/05/25 03:34:49;;;;;;;2.05;0.50;;;12.70;58.70;;;;;;2600543;52;20934;-70
2021/05/25 03:37:16;;;;;;;3.50;0.70;;;12.60;58.90;;;;;;2566143;52;20961;-71
2021/05/25 03:39:42;;;;;;;2.70;0.70;;;12.60;59.10;;;;;;2374277;53;21449;-70
2021/05/25 03:42:09;;;;;;;1.45;0.45;;;12.60;59.10;;;;;;2373854;53;21013;-71
2021/05/25 03:44:36;;;;;;;2.22;0.60;;;12.60;59.20;;;;;;2375121;52;20922;-72
2021/05/25 03:47:02;;;;;;;4.07;0.52;;;12.60;59.10;;;;;;2379166;52;20906;-70
2021/05/25 03:49:29;;;;;;;1.37;0.60;;;12.50;59.10;;;;;;2481323;52;20998;-71
2021/05/25 03:51:55;;;;;;;2.17;0.50;;;12.50;59.20;;;;;;2381533;52;21017;-71
2021/05/25 03:54:26;;;;;;;5.07;0.82;;;12.50;59.20;;;;;;2361478;52;20918;-71
2021/05/25 03:56:57;;;;;;;1.70;0.50;;;12.50;59.10;;;;;;2613641;52;20926;-71
2021/05/25 03:59:23;;;;;;;3.58;0.60;;;12.50;59.00;;;;;;2544622;52;21333;-71
2021/05/25 04:01:52;;;;;;;5.20;0.95;;;12.50;59.00;;;;;;2627613;52;20941;-71
2021/05/25 04:04:18;;;;;;;3.65;0.50;;;12.50;59.10;;;;;;2627281;52;20972;-71
2021/05/25 04:06:46;;;;;;;1.77;0.70;;;12.50;59.00;;;;;;2374216;53;21335;-71
2021/05/25 04:09:12;;;;;;;2.55;0.60;;;12.50;59.20;;;;;;2516215;52;20918;-71
2021/05/25 04:11:39;;;;;;;2.58;0.50;;;12.50;59.00;;;;;;2373820;52;21422;-71
2021/05/25 04:14:06;;;;;;;2.85;0.73;;;12.50;59.00;;;;;;2374140;53;20914;-72
2021/05/25 04:16:32;;;;;;;6.12;0.98;;;12.50;59.00;;;;;;2374448;53;21005;-71
2021/05/25 04:18:59;;;;;;;2.95;0.60;;;12.40;58.70;;;;;;2374215;53;20984;-71
2021/05/25 04:21:26;;;;;;;3.12;0.60;;;12.50;58.90;;;;;;2374509;52;21220;-71
2021/05/25 04:23:52;;;;;;;1.27;0.50;;;12.40;58.80;;;;;;2374155;53;21459;-70
2021/05/25 04:26:18;;;;;;;2.08;0.43;;;12.40;58.90;;;;;;2376586;52;21858;-71
2021/05/25 04:28:47;;;;;;;3.28;0.70;;;12.40;59.10;;;;;;2374269;52;21001;-71
2021/05/25 04:31:13;;;;;;;2.25;0.80;;;12.50;59.00;;;;;;2377199;52;20913;-71
2021/05/25 04:33:39;;;;;;;2.30;0.65;;;12.50;59.10;;;;;;2626863;52;20985;-71
2021/05/25 04:36:06;;;;;;;1.90;0.57;;;12.50;59.00;;;;;;2627465;52;22076;-72
2021/05/25 04:38:32;;;;;;;1.27;0.50;;;12.50;58.90;;;;;;2612731;52;21065;-71
2021/05/25 04:40:59;;;;;;;2.78;0.50;;;12.50;58.90;;;;;;2625873;52;20953;-71
2021/05/25 04:43:26;;;;;;;1.80;0.43;;;12.50;59.00;;;;;;2374242;53;20960;-70
2021/05/25 04:45:54;;;;;;;4.97;0.80;;;12.50;59.00;;;;;;2377173;52;20910;-70
2021/05/25 04:48:20;;;;;;;3.65;0.50;;;12.50;58.80;;;;;;2374112;53;20968;-71
2021/05/25 04:50:47;;;;;;;1.48;0.40;;;12.50;58.50;;;;;;2374393;52;20972;-70
2021/05/25 04:53:13;;;;;;;5.45;0.55;;;12.60;58.70;;;;;;2470519;52;20957;-70
2021/05/25 04:55:40;;;;;;;1.20;0.43;;;12.60;58.70;;;;;;2526082;52;21209;-70
2021/05/25 04:58:06;;;;;;;2.22;0.70;;;12.60;58.80;;;;;;2371001;52;20929;-71
2021/05/25 05:00:33;;;;;;;2.58;0.50;;;12.60;58.80;;;;;;2378059;52;20990;-70
2021/05/25 05:02:59;;;;;;;5.72;0.68;;;12.70;58.80;;;;;;2372759;53;20983;-70
2021/05/25 05:05:26;;;;;;;2.80;0.60;;;12.70;58.90;;;;;;2374259;53;21041;-70
2021/05/25 05:07:52;;;;;;;1.65;0.50;;;12.70;58.90;;;;;;2374486;52;20926;-70
2021/05/25 05:10:19;;;;;;;3.03;0.70;;;12.70;58.90;;;;;;2377958;52;21045;-70
2021/05/25 05:12:45;;;;;;;4.00;0.50;;;12.70;58.90;;;;;;2626451;52;21448;-70
2021/05/25 05:15:13;;;;;;;1.90;0.50;;;12.70;58.80;;;;;;2377406;52;20989;-71
2021/05/25 05:17:40;;;;;;;3.08;0.57;;;12.80;59.00;;;;;;2627907;52;21672;-70
2021/05/25 05:20:06;;;;;;;3.17;0.50;;;12.80;58.80;;;;;;2374330;52;20960;-72
2021/05/25 05:22:33;;;;;;;2.78;0.60;;;12.80;58.80;;;;;;2437340;52;20949;-70
2021/05/25 05:24:59;;;;;;;1.65;0.40;;;12.80;58.70;;;;;;2362567;53;20940;-71
2021/05/25 05:27:29;;;;;;;2.33;0.47;;;12.80;58.70;;;;;;2472852;52;20937;-71
2021/05/25 05:29:56;;;;;;;1.85;0.55;;;12.80;58.60;;;;;;2566402;52;21044;-71
2021/05/25 05:32:22;;;;;;;1.25;0.43;;;12.90;58.60;;;;;;2627441;52;20993;-70
2021/05/25 05:34:49;;;;;;;1.85;0.47;;;12.90;58.70;;;;;;2377683;52;20937;-71
2021/05/25 05:37:15;;;;;;;2.85;0.57;;;12.90;58.60;;;;;;2627042;52;21006;-71
2021/05/25 05:39:43;;;;;;;3.37;0.60;;;12.90;58.40;;;;;;2374598;52;21015;-71
2021/05/25 05:42:10;;;;;;;3.05;0.60;;;12.90;58.40;;;;;;2374408;52;21058;-71
2021/05/25 05:44:39;;;;;;;3.50;0.60;;;12.90;58.10;;;;;;2373923;52;21382;-70
2021/05/25 05:47:05;;;;;;;2.50;0.62;;;13.00;58.10;;;;;;2516662;52;20996;-71
2021/05/25 05:49:32;;;;;;;1.77;0.70;;;13.00;58.00;;;;;;2627176;52;20921;-71
2021/05/25 05:51:59;;;;;;;3.80;0.65;;;13.00;58.00;;;;;;2377703;52;21780;-72
2021/05/25 05:54:26;;;;;;;2.83;0.50;;;13.00;57.90;;;;;;2373716;53;20913;-71
2021/05/25 05:56:52;;;;;;;2.30;0.50;;;13.00;58.00;;;;;;2627422;52;21549;-72
2021/05/25 05:59:18;;;;;;;2.40;0.50;;;13.00;58.10;;;;;;2377720;52;21783;-70
2021/05/25 06:01:45;;;;;;;3.30;0.50;;;13.00;58.50;;;;;;2373329;52;20925;-71
2021/05/25 06:04:12;;;;;;;1.92;0.57;;;13.00;58.10;;;;;;2373496;52;20933;-71
2021/05/25 06:06:40;;;;;;;4.12;0.52;;;13.10;58.20;;;;;;2548855;52;20997;-71
2021/05/25 06:09:07;;;;;;;5.05;0.80;;;13.10;57.80;;;;;;2367883;53;20912;-71
2021/05/25 06:11:33;;;;;;;4.70;0.80;;;13.10;57.80;;;;;;2368671;52;20954;-71
2021/05/25 06:13:59;;;;;;;1.92;0.50;;;13.10;57.70;;;;;;2372669;52;21029;-71
2021/05/25 06:16:26;;;;;;;3.97;0.93;;;13.10;57.70;;;;;;2455171;52;20909;-71
2021/05/25 06:18:52;;;;;;;4.12;0.62;;;13.10;57.80;;;;;;2420562;52;20951;-70
2021/05/25 06:21:19;;;;;;;1.50;0.43;;;13.10;57.60;;;;;;2626961;52;22028;-71
2021/05/25 06:23:45;;;;;;;4.47;0.68;;;13.10;57.80;;;;;;2373014;53;20989;-71
2021/05/25 06:26:12;;;;;;;3.35;0.60;;;13.10;58.00;;;;;;2405581;52;20901;-71
2021/05/25 06:28:39;;;;;;;6.75;1.30;;;13.20;58.10;;;;;;2377500;52;21724;-72
2021/05/25 06:31:05;;;;;;;5.00;0.95;;;13.20;58.00;;;;;;2354036;53;20944;-71
2021/05/25 06:33:32;;;;;;;8.93;1.20;;;13.20;57.70;;;;;;2628489;52;20972;-71
2021/05/25 06:35:58;;;;;;;3.85;1.10;;;13.20;57.30;;;;;;2625641;52;21033;-72
2021/05/25 06:38:26;;;;;;;3.80;0.70;;;13.20;57.30;;;;;;2386029;52;20981;-71
2021/05/25 06:40:52;;;;;;;4.43;0.90;;;13.20;57.60;;;;;;2473623;53;21029;-71
2021/05/25 06:43:18;;;;;;;7.18;1.30;;;13.20;57.80;;;;;;2377835;52;22149;-71
2021/05/25 06:45:45;;;;;;;5.20;0.93;;;13.20;57.90;;;;;;2416801;52;20988;-71
2021/05/25 06:48:12;;;;;;;4.55;0.80;;;13.20;57.40;;;;;;2378874;52;21026;-70
2021/05/25 06:50:38;;;;;;;5.43;1.10;;;13.20;57.20;;;;;;2616485;52;21681;-70
2021/05/25 06:53:04;;;;;;;5.18;1.00;;;13.30;57.40;;;;;;2374027;53;20909;-71
2021/05/25 06:55:31;;;;;;;4.70;1.00;;;13.20;57.30;;;;;;2373631;52;20965;-70
2021/05/25 06:57:58;;;;;;;4.97;0.98;;;13.30;57.50;;;;;;2627514;52;21053;-71
2021/05/25 07:00:25;;;;;;;4.72;0.77;;;13.30;57.40;;;;;;2373589;53;20929;-71
2021/05/25 07:02:53;;;;;;;3.30;0.60;;;13.30;57.60;;;;;;2598177;52;20946;-70
2021/05/25 07:05:19;;;;;;;3.75;1.00;;;13.40;57.80;;;;;;2374461;52;20913;-70
2021/05/25 07:07:46;;;;;;;8.45;0.98;;;13.40;57.70;;;;;;2374072;52;20961;-71
2021/05/25 07:10:13;;;;;;;4.87;0.90;;;13.40;57.80;;;;;;2373668;53;20992;-72
2021/05/25 07:12:39;;;;;;;6.65;1.45;;;13.40;58.10;;;;;;2374684;52;20996;-72
2021/05/25 07:15:10;;;;;;;5.45;0.90;;;13.40;58.20;;;;;;2377792;52;20918;-70
2021/05/25 07:17:38;;;;;;;3.67;0.90;;;13.40;58.40;;;;;;2369271;53;20950;-72
2021/05/25 07:20:06;;;;;;;5.62;1.10;;;13.40;58.00;;;;;;2373261;52;20929;-69
2021/05/25 07:22:33;;;;;;;3.95;1.08;;;13.30;58.10;;;;;;2567128;52;20905;-65
2021/05/25 07:25:00;;;;;;;5.12;1.05;;;13.40;58.00;;;;;;2373675;52;20905;-64
2021/05/25 07:27:26;;;;;;;6.25;1.00;;;13.40;58.20;;;;;;2373607;52;20929;-66
2021/05/25 07:29:52;;;;;;;4.97;1.27;;;13.40;58.20;;;;;;2371665;53;21005;-66
2021/05/25 07:32:23;;;;;;;5.03;0.77;;;13.40;58.30;;;;;;2376888;52;20945;-66
2021/05/25 07:34:50;;;;;;;7.55;1.50;;;13.40;58.30;;;;;;2360479;52;20926;-64
2021/05/25 07:37:16;;;;;;;4.15;1.10;;;13.40;58.20;;;;;;2372767;53;20953;-65
2021/05/25 07:39:46;;;;;;;3.85;1.10;;;13.30;58.30;;;;;;2626260;52;20898;-70
2021/05/25 07:42:12;;;;;;;4.95;0.80;;;13.40;58.30;;;;;;2626379;52;21395;-64
2021/05/25 07:44:38;;;;;;;3.08;0.95;;;13.40;58.50;;;;;;2373921;52;20909;-67
2021/05/25 07:47:05;;;;;;;3.83;0.88;;;13.50;58.80;;;;;;2554701;52;20918;-66
2021/05/25 07:49:33;;;;;;;5.28;1.10;;;13.50;58.90;;;;;;2373710;52;20901;-66
2021/05/25 07:52:00;;;;;;;4.53;1.48;;;13.50;58.70;;;;;;2353506;53;21001;-69
2021/05/25 07:54:27;;;;;;;7.32;2.25;;;13.50;58.80;;;;;;2377835;52;21578;-68
2021/05/25 07:56:54;;;;;;;6.80;2.50;;;13.50;58.80;;;;;;2373410;53;20889;-67
2021/05/25 07:59:21;;;;;;;7.00;2.87;;;13.60;58.90;;;;;;2373593;52;20949;-67
2021/05/25 08:01:47;;;;;;;6.32;2.25;;;13.60;59.10;;;;;;2376388;53;20937;-67
2021/05/25 08:04:13;;;;;;;4.53;1.80;;;13.60;59.10;;;;;;2376842;52;20969;-65
2021/05/25 08:06:40;;;;;;;4.30;1.20;;;13.70;59.20;;;;;;2615919;52;20949;-67
2021/05/25 08:09:06;;;;;;;4.25;1.23;;;13.70;59.20;;;;;;2400304;52;20950;-69
2021/05/25 08:11:33;;;;;;;4.03;1.05;;;13.70;59.30;;;;;;2627358;52;20988;-67
2021/05/25 08:13:59;;;;;;;3.62;0.80;;;13.80;59.10;;;;;;2357964;53;20953;-68
2021/05/25 08:16:30;;;;;;;5.75;1.00;;;13.80;59.20;;;;;;2374061;52;21836;-69
2021/05/25 08:19:10;;;;;;;3.58;0.93;;;13.80;59.30;;;;;;2373567;52;20917;-71
2021/05/25 08:21:37;;;;;;;4.62;1.05;;;13.80;59.30;;;;;;2377499;52;20918;-70
2021/05/25 08:24:04;;;;;;;6.65;1.65;;;13.90;59.30;;;;;;2620936;52;20941;-65
2021/05/25 08:26:31;;;;;;;3.75;0.98;;;13.90;59.30;;;;;;2356583;53;21342;-68
2021/05/25 08:28:57;;;;;;;2.80;0.80;;;14.00;59.50;;;;;;2625592;52;20980;-68
2021/05/25 08:31:23;;;;;;;2.35;0.60;;;14.00;59.60;;;;;;2373588;53;20968;-67
2021/05/25 08:33:50;;;;;;;7.22;0.90;;;14.00;59.60;;;;;;2373623;53;20985;-64
2021/05/25 08:36:17;;;;;;;3.25;0.80;;;14.10;59.80;;;;;;2374125;53;20917;-68
2021/05/25 08:38:46;;;;;;;3.35;0.90;;;14.00;59.80;;;;;;2373823;53;20917;-68
2021/05/25 08:41:12;;;;;;;4.78;1.35;;;14.20;59.70;;;;;;2373647;53;21784;-64
2021/05/25 08:43:39;;;;;;;2.90;0.95;;;14.20;59.50;;;;;;2384156;52;20969;-65
2021/05/25 08:46:05;;;;;;;2.30;0.60;;;14.30;59.20;;;;;;2361500;53;21440;-68
2021/05/25 08:48:32;;;;;;;3.03;0.65;;;14.30;59.10;;;;;;2373903;53;21526;-68
2021/05/25 08:51:00;;;;;;;2.67;0.60;;;14.30;58.90;;;;;;2374187;53;20972;-65
2021/05/25 08:53:27;;;;;;;3.15;0.70;;;14.30;58.70;;;;;;2375856;53;20917;-65
2021/05/25 08:55:53;;;;;;;3.53;0.90;;;14.40;58.70;;;;;;2627000;52;20926;-67
2021/05/25 08:58:20;;;;;;;2.30;0.55;;;14.40;58.80;;;;;;2360285;53;20929;-67
2021/05/25 09:00:47;;;;;;;3.55;0.60;;;14.40;58.70;;;;;;2371521;52;21348;-67
2021/05/25 09:03:16;;;;;;;3.15;0.73;;;14.40;58.60;;;;;;2371435;53;20977;-64
2021/05/25 09:06:16;;;;;;;2.83;0.65;;;14.50;58.70;;;;;;2373976;53;21409;-66
2021/05/25 09:08:44;;;;;;;1.75;0.50;;;14.50;58.10;;;;;;2626768;52;20989;-65
2021/05/25 09:11:12;;;;;;;3.20;0.60;;;14.50;58.90;;;;;;2377526;52;20942;-67
2021/05/25 09:13:38;;;;;;;2.55;0.70;;;14.50;59.00;;;;;;2626594;52;21362;-65
2021/05/25 09:16:07;;;;;;;13.45;0.82;;;14.60;59.00;;;;;;2381302;52;21728;-66
2021/05/25 09:18:44;;;;;;;3.12;0.75;;;14.60;58.90;;;;;;2337444;53;21881;-66
2021/05/25 09:21:10;;;;;;;2.53;0.70;;;14.70;58.60;;;;;;2374443;53;20941;-67
2021/05/25 09:23:45;;;;;;;5.25;1.00;;;14.70;58.80;;;;;;2378191;52;21469;-66
2021/05/25 09:26:32;;;;;;;3.97;0.55;;;14.80;58.20;;;;;;2414458;52;20924;-64
2021/05/25 09:29:07;;;;;;;2.60;0.70;;;14.80;58.30;;;;;;2373753;52;20962;-64
2021/05/25 09:31:52;;;;;;;1.50;0.60;;;14.90;58.80;;;;;;2376351;53;20989;-65
2021/05/25 09:34:23;;;;;;;3.08;0.70;;;14.90;58.10;;;;;;2373459;53;20945;-66
2021/05/25 09:37:03;;;;;;;2.97;0.90;;;14.90;58.70;;;;;;2373314;53;21446;-66
2021/05/25 09:40:32;;;;;;;2.87;0.70;;;15.00;58.30;;;;;;2376794;53;20914;-65
2021/05/25 09:43:23;;;;;;;2.17;0.50;;;15.00;58.90;;;;;;2374860;52;20932;-67
2021/05/25 09:46:18;;;;;;;2.55;0.57;;;15.10;58.50;;;;;;2374169;52;20977;-64
2021/05/25 09:48:53;;;;;;;3.17;0.80;;;15.10;58.30;;;;;;2381096;52;21450;-66
2021/05/25 09:51:25;;;;;;;2.40;0.60;;;15.20;57.70;;;;;;2369711;52;20988;-66
2021/05/25 09:53:56;;;;;;;2.00;0.60;;;15.20;58.40;;;;;;2627071;52;21013;-70
2021/05/25 09:56:24;;;;;;;2.15;0.70;;;15.30;58.50;;;;;;2373907;53;21641;-63
2021/05/25 09:58:51;;;;;;;2.92;0.85;;;15.40;58.70;;;;;;2381926;52;20965;-68
2021/05/25 10:01:17;;;;;;;2.87;1.15;;;15.40;58.60;;;;;;2367320;53;20971;-66
2021/05/25 10:03:52;;;;;;;2.70;0.80;;;15.50;58.60;;;;;;2377362;52;20942;-70
2021/05/25 10:06:18;;;;;;;2.75;0.82;;;15.60;58.40;;;;;;2374164;53;20945;-67
2021/05/25 10:08:45;;;;;;;2.50;0.90;;;15.60;58.10;;;;;;2373989;52;20914;-68
2021/05/25 10:11:15;;;;;;;3.50;1.10;;;15.70;58.00;;;;;;2376913;52;21440;-67
2021/05/25 10:13:42;;;;;;;4.45;0.80;;;15.70;57.30;;;;;;2377340;53;20986;-66
2021/05/25 10:16:09;;;;;;;2.87;0.98;;;15.80;57.60;;;;;;2626795;52;21297;-65
2021/05/25 10:22:36;;;;;;;6.90;1.87;;;15.80;56.70;;;;;;2627315;52;21794;-65
2021/05/25 10:25:04;;;;;;;4.10;1.17;;;15.80;56.70;;;;;;2373307;53;20980;-68
2021/05/25 10:27:31;;;;;;;3.40;0.88;;;15.90;56.40;;;;;;2376568;52;20966;-64
2021/05/25 10:29:57;;;;;;;2.83;0.88;;;15.80;56.30;;;;;;2374251;52;20965;-65
2021/05/25 10:32:24;;;;;;;3.85;0.70;;;15.80;56.10;;;;;;2373715;53;20925;-69
2021/05/25 10:34:52;;;;;;;3.25;0.82;;;15.80;56.20;;;;;;2377841;52;20961;-66
2021/05/25 10:37:19;;;;;;;5.12;1.05;;;15.70;55.40;;;;;;2372258;52;20995;-68
2021/05/25 10:39:46;;;;;;;4.70;0.88;;;15.70;55.60;;;;;;2377611;52;20954;-64
2021/05/25 10:42:46;;;;;;;4.90;0.90;;;15.70;55.90;;;;;;2374084;53;20930;-66
2021/05/25 10:46:17;;;;;;;2.58;0.98;;;15.60;55.20;;;;;;2374078;52;20966;-68
2021/05/25 10:52:16;;;;;;;4.37;0.75;;;15.70;55.70;;;;;;2374233;53;21016;-65
2021/05/25 10:54:45;;;;;;;3.50;1.15;;;15.80;56.10;;;;;;2374507;52;20949;-66
2021/05/25 10:57:51;;;;;;;2.62;0.47;;;15.90;57.10;;;;;;2373967;52;20928;-68
2021/05/25 11:00:41;;;;;;;2.62;0.70;;;16.10;56.40;;;;;;2353827;53;20921;-64
2021/05/25 11:03:44;;;;;;;4.05;0.90;;;16.30;57.00;;;;;;2374040;53;20936;-67
2021/05/25 11:06:12;;;;;;;;;;;16.40;56.50;;;;;;2377260;53;20938;-67
2021/05/25 11:08:39;;;;;;;1.95;0.60;;;16.60;56.70;;;;;;2374124;52;20161;-67
2021/05/25 11:11:15;;;;;;;2.70;0.80;;;16.70;55.70;;;;;;2374068;53;20921;-66
2021/05/25 11:13:52;;;;;;;4.22;0.65;;;16.80;55.10;;;;;;2377499;52;20918;-67
2021/05/25 11:16:33;;;;;;;2.92;0.50;;;16.90;55.70;;;;;;2597952;52;20985;-66
2021/05/25 11:19:35;;;;;;;4.20;0.70;;;17.00;55.50;;;;;;2627669;52;20943;-66
2021/05/25 11:25:03;;;;;;;3.35;0.73;;;17.20;54.40;;;;;;2373874;53;20981;-68
2021/05/25 11:27:51;;;;;;;4.45;0.75;;;17.30;52.90;;;;;;2382347;52;21489;-67
2021/05/25 11:30:25;;;;;;;3.28;0.75;;;17.40;52.80;;;;;;2348171;53;20985;-67
2021/05/25 11:32:51;;;;;;;2.45;0.50;;;17.40;51.60;;;;;;2377478;52;21008;-69
2021/05/25 11:35:22;;;;;;;3.60;0.80;;;17.50;52.70;;;;;;2373963;53;20968;-67
2021/05/25 11:37:57;;;;;;;3.78;0.65;;;17.50;52.50;;;;;;2380884;53;20963;-69
2021/05/25 11:40:25;;;;;;;2.22;0.60;;;17.50;52.80;;;;;;2366460;53;20930;-69
2021/05/25 11:42:54;;;;;;;3.28;1.10;;;17.50;53.40;;;;;;2611754;52;20930;-65
2021/05/25 11:45:25;;;;;;;3.55;1.48;;;17.60;53.80;;;;;;2373225;53;21206;-67
2021/05/25 11:48:04;;;;;;;3.50;1.12;;;17.70;54.30;;;;;;2384142;53;20901;-70
2021/05/25 11:50:38;;;;;;;3.22;0.80;;;17.80;54.30;;;;;;2370207;53;21873;-69
2021/05/25 11:53:04;;;;;;;3.65;0.90;;;17.90;54.00;;;;;;2404722;52;20941;-69
2021/05/25 11:55:32;;;;;;;3.78;1.10;;;17.90;53.10;;;;;;2376199;53;20965;-69
2021/05/25 11:58:00;;;;;;;2.25;0.85;;;17.90;52.40;;;;;;2626382;52;20910;-69
2021/05/25 12:00:28;;;;;;;3.67;0.62;;;17.90;52.70;;;;;;2627035;52;20966;-66
2021/05/25 12:02:56;;;;;;;1.75;0.60;;;17.90;52.80;;;;;;2373766;53;20933;-67
2021/05/25 12:05:35;;;;;;;3.83;0.80;;;17.80;52.70;;;;;;2373977;53;20968;-69
2021/05/25 12:08:06;;;;;;;3.30;0.68;;;17.90;52.40;;;;;;2373341;52;21784;-66
2021/05/25 12:10:34;;;;;;;1.65;0.50;;;17.90;53.00;;;;;;2374330;53;20914;-69
2021/05/25 12:13:18;;;;;;;2.03;0.52;;;18.00;53.80;;;;;;2378064;53;20930;-66
2021/05/25 12:15:57;;;;;;;4.35;0.82;;;18.00;53.60;;;;;;2360156;53;20908;-69
2021/05/25 12:18:27;;;;;;;1.83;0.50;;;18.20;53.50;;;;;;2374933;53;20938;-68
2021/05/25 12:20:54;;;;;;;1.20;0.37;;;18.30;53.30;;;;;;2374311;53;20989;-67
2021/05/25 12:23:24;;;;;;;1.73;0.47;;;18.30;53.10;;;;;;2353933;53;20916;-66
2021/05/25 12:25:53;;;;;;;2.53;0.52;;;18.50;53.50;;;;;;2380159;53;20998;-66
2021/05/25 12:28:39;;;;;;;3.47;0.90;;;18.50;53.30;;;;;;2352084;53;20973;-67
2021/05/25 12:31:07;;;;;;;2.97;0.62;;;18.50;52.30;;;;;;2373367;53;21387;-66
2021/05/25 12:33:37;;;;;;;3.90;0.75;;;18.50;53.00;;;;;;2378204;53;20986;-67
2021/05/25 12:37:04;;;;;;;3.67;0.80;;;18.60;52.40;;;;;;2375267;53;20940;-65
2021/05/25 12:39:48;;;;;;;7.32;0.88;;;18.50;51.20;;;;;;2381415;52;21391;-70
2021/05/25 12:42:16;;;;;;;3.78;0.80;;;18.50;51.10;;;;;;2377287;52;20970;-67
2021/05/25 12:44:42;;;;;;;5.15;0.82;;;18.50;51.30;;;;;;2612004;52;21001;-70
2021/05/25 12:47:10;;;;;;;4.70;1.25;;;18.50;51.20;;;;;;2372385;53;20969;-71
2021/05/25 12:49:46;;;;;;;1.98;0.65;;;18.50;50.80;;;;;;2383575;52;20913;-70
2021/05/25 12:52:59;;;;;;;3.67;0.65;;;18.50;51.30;;;;;;2373683;53;21005;-71
2021/05/25 12:55:25;;;;;;;3.12;0.88;;;18.60;50.60;;;;;;2358432;53;21061;-70
2021/05/25 12:57:52;;;;;;;1.83;0.50;;;18.70;51.90;;;;;;2626337;52;20965;-70
2021/05/25 13:00:40;;;;;;;2.70;0.50;;;18.80;52.00;;;;;;2376172;52;20977;-68
2021/05/25 13:03:30;;;;;;;2.92;0.80;;;18.80;50.50;;;;;;2374070;53;20929;-66
2021/05/25 13:06:15;;;;;;;2.65;0.70;;;18.90;50.90;;;;;;2627050;52;20930;-66
2021/05/25 13:08:44;;;;;;;7.70;0.90;;;19.10;51.30;;;;;;2377390;52;20918;-72
2021/05/25 13:11:11;;;;;;;3.92;0.73;;;19.10;52.20;;;;;;2373000;53;21450;-69